Decoded Metar for YHID ( in ) (IATA:) | Meteo·Mobile Aviation Weather
aviador You're here:

YHID Decoded Metar

in
Report Time2018-12-10 10:30:00
UTC Time2018-12-10 11:11:13
Flight Rules vfr VFR
Wind260° at 08 kt
W.Decomp.*RWY 26: 8.0 kt HW 0 kt LCW
RWY 32: 4.0 kt HW 6.9 kt LCW
W.Rank260° ranks 24
Current wind is above 260° avg. (6.4)
Visibility9999 m
Phenomena:N/A
Clouds:Scattered 022 Hf
Expected CloudBase > 2,000 ft AGL from Temp-Dew spread
CeilingNone
Temp29°C
Dew Point24°C (74% RH)
Heat Index33.5°C
QNH1006 hPa
Raw Report
METAR YHID 101030Z AUTO 26008KT 9999 // SCT022 29/24 Q1006=

Extra information for YHID:More info

Social comments